Time;durP1;ratioP1;P1;durP2;ratioP2;P2;SDS_P1;SDS_P2;PMS_P1;PMS_P2;Temp;Humidity;BMP_temperature;BMP_pressure;BME280_temperature;BME280_humidity;BME280_pressure;Samples;Min_cycle;Max_cycle;Signal;HPM_P1;HPM_P2
2022/10/27 00:00:44;;;;;;;5.68;2.58;;;12.10;99.90;;;;;;4790654;30;20248;-87
2022/10/27 00:03:12;;;;;;;9.00;2.47;;;12.10;99.90;;;;;;4791637;30;20183;-87
2022/10/27 00:05:38;;;;;;;6.28;2.28;;;12.10;99.90;;;;;;4790458;30;20254;-89
2022/10/27 00:08:04;;;;;;;3.60;2.28;;;12.10;99.90;;;;;;4790073;29;20198;-89
2022/10/27 00:10:30;;;;;;;5.97;2.90;;;12.10;99.90;;;;;;4790703;30;20223;-88
2022/10/27 00:12:56;;;;;;;7.15;2.60;;;12.10;99.90;;;;;;4790756;30;20211;-88
2022/10/27 00:15:22;;;;;;;15.00;2.90;;;12.10;99.90;;;;;;4790382;30;20215;-87
2022/10/27 00:17:48;;;;;;;10.52;2.72;;;12.10;99.90;;;;;;4790321;30;20191;-88
2022/10/27 00:20:14;;;;;;;7.30;2.60;;;12.10;99.90;;;;;;4791348;30;20221;-89
2022/10/27 00:22:39;;;;;;;9.85;2.83;;;12.10;99.90;;;;;;4777635;30;20188;-89
2022/10/27 00:25:05;;;;;;;10.23;2.97;;;12.20;99.90;;;;;;4790606;30;20189;-89
2022/10/27 00:27:31;;;;;;;4.85;2.65;;;12.10;99.90;;;;;;4790309;30;20183;-89
2022/10/27 00:29:57;;;;;;;7.97;2.50;;;12.10;99.90;;;;;;4790302;30;20187;-88
2022/10/27 00:32:23;;;;;;;11.68;2.92;;;12.10;99.90;;;;;;4791823;30;20194;-89
2022/10/27 00:34:49;;;;;;;6.32;2.40;;;12.10;99.90;;;;;;4790106;30;20218;-89
2022/10/27 00:37:14;;;;;;;6.43;2.40;;;12.10;99.90;;;;;;4789930;30;20218;-89
2022/10/27 00:39:40;;;;;;;9.88;2.88;;;12.10;99.90;;;;;;4791101;30;20262;-89
2022/10/27 00:42:05;;;;;;;5.55;2.60;;;12.00;99.90;;;;;;4791127;30;20198;-88
2022/10/27 00:44:37;;;;;;;9.63;2.50;;;12.00;99.90;;;;;;4789898;30;20186;-89
2022/10/27 00:47:09;;;;;;;10.25;2.70;;;12.00;99.90;;;;;;4790194;30;20183;-89
2022/10/27 00:49:44;;;;;;;6.95;2.83;;;11.90;99.90;;;;;;4789913;30;20183;-89
2022/10/27 00:52:44;;;;;;;3.97;2.50;;;11.90;99.90;;;;;;4774642;30;20364;-89
2022/10/27 00:55:21;;;;;;;4.07;2.70;;;11.90;99.90;;;;;;4772021;30;20584;-88
2022/10/27 00:57:50;;;;;;;5.35;3.00;;;11.90;99.90;;;;;;4774750;30;20544;-90
2022/10/27 01:00:16;;;;;;;5.82;2.45;;;11.90;99.90;;;;;;4775223;30;20278;-88
2022/10/27 01:02:42;;;;;;;7.18;2.72;;;11.80;99.90;;;;;;4774820;30;20218;-87
2022/10/27 01:05:15;;;;;;;8.88;2.92;;;11.90;99.90;;;;;;4774737;30;20653;-87
2022/10/27 01:07:42;;;;;;;7.72;2.30;;;11.80;99.90;;;;;;4774489;30;20282;-88
2022/10/27 01:10:08;;;;;;;9.18;2.63;;;11.90;99.90;;;;;;4774587;30;20192;-88
2022/10/27 01:12:35;;;;;;;12.05;2.85;;;11.80;99.90;;;;;;4774646;30;20608;-87
2022/10/27 01:15:02;;;;;;;4.75;2.60;;;11.80;99.90;;;;;;4774702;30;20227;-87
2022/10/27 01:18:10;;;;;;;4.90;2.67;;;11.80;99.90;;;;;;4774021;29;20187;-87
2022/10/27 01:20:39;;;;;;;4.80;2.47;;;11.80;99.90;;;;;;4790185;30;20183;-88
2022/10/27 01:23:15;;;;;;;11.52;2.72;;;11.80;99.90;;;;;;4789042;30;20213;-88
2022/10/27 01:25:50;;;;;;;4.70;2.40;;;11.70;99.90;;;;;;4774588;30;20194;-87
2022/10/27 01:28:53;;;;;;;9.55;2.97;;;11.70;99.90;;;;;;4789146;30;20187;-87
2022/10/27 01:31:25;;;;;;;3.97;2.25;;;11.70;99.90;;;;;;4789226;30;20226;-88
2022/10/27 01:34:17;;;;;;;9.73;3.28;;;11.80;99.90;;;;;;4774378;30;20283;-88
2022/10/27 01:37:10;;;;;;;5.22;2.42;;;11.80;99.90;;;;;;4788763;30;20569;-87
2022/10/27 01:39:43;;;;;;;7.57;2.58;;;11.80;99.90;;;;;;4766736;30;20191;-87
2022/10/27 01:42:15;;;;;;;10.50;2.60;;;11.80;99.90;;;;;;4774134;30;20195;-87
2022/10/27 01:44:47;;;;;;;4.43;2.20;;;11.80;99.90;;;;;;4774126;30;20203;-88
2022/10/27 01:47:13;;;;;;;14.55;3.05;;;11.80;99.90;;;;;;4774136;30;20609;-88
2022/10/27 01:49:41;;;;;;;5.03;2.40;;;11.70;99.90;;;;;;4773975;30;20187;-87
2022/10/27 01:52:35;;;;;;;12.63;2.95;;;11.70;99.90;;;;;;4770350;30;20298;-88
2022/10/27 01:55:01;;;;;;;4.25;2.42;;;11.60;99.90;;;;;;4770751;30;20347;-86
2022/10/27 01:57:56;;;;;;;8.45;2.38;;;11.70;99.90;;;;;;4785834;30;20184;-87
2022/10/27 02:00:22;;;;;;;10.02;2.45;;;11.60;99.90;;;;;;4785692;30;20187;-88
2022/10/27 02:02:54;;;;;;;8.25;2.63;;;11.60;99.90;;;;;;4785639;30;20184;-87
2022/10/27 02:05:35;;;;;;;3.78;2.60;;;11.60;99.90;;;;;;4770855;30;20187;-87
2022/10/27 02:08:11;;;;;;;5.00;2.53;;;11.60;99.90;;;;;;4771327;30;20250;-86
2022/10/27 02:10:56;;;;;;;3.83;2.13;;;11.60;99.90;;;;;;4785718;30;20180;-88
2022/10/27 02:13:22;;;;;;;3.20;2.42;;;11.60;99.90;;;;;;4785596;30;20212;-88
2022/10/27 02:15:56;;;;;;;3.95;2.40;;;11.60;99.90;;;;;;4771545;30;20209;-87
2022/10/27 02:18:29;;;;;;;6.28;2.42;;;11.60;99.90;;;;;;4785490;30;20263;-86
2022/10/27 02:21:04;;;;;;;8.57;3.28;;;11.60;99.90;;;;;;4785457;30;20207;-87
2022/10/27 02:23:30;;;;;;;3.40;2.30;;;11.60;99.90;;;;;;4770680;30;20184;-88
2022/10/27 02:26:08;;;;;;;6.38;3.00;;;11.60;99.90;;;;;;4770455;30;20184;-87
2022/10/27 02:29:00;;;;;;;6.43;2.78;;;11.50;99.90;;;;;;4785336;30;20195;-88
2022/10/27 02:31:32;;;;;;;5.35;2.42;;;11.60;99.90;;;;;;4770503;30;20180;-87
2022/10/27 02:33:58;;;;;;;5.63;2.97;;;11.50;99.90;;;;;;4770364;30;20176;-88
2022/10/27 02:36:25;;;;;;;6.38;2.78;;;11.60;99.90;;;;;;4770035;30;20239;-88
2022/10/27 02:38:50;;;;;;;4.78;2.47;;;11.60;99.90;;;;;;4770350;30;20272;-88
2022/10/27 02:41:16;;;;;;;8.40;3.00;;;11.60;99.90;;;;;;4770420;30;20219;-87
2022/10/27 02:43:42;;;;;;;4.30;3.03;;;11.50;99.90;;;;;;4770074;30;20197;-87
2022/10/27 02:46:07;;;;;;;10.43;3.55;;;11.50;99.90;;;;;;4770213;30;20180;-87
2022/10/27 02:48:33;;;;;;;10.10;3.90;;;11.50;99.90;;;;;;4770412;30;20192;-86
2022/10/27 02:50:59;;;;;;;9.85;3.83;;;11.50;99.90;;;;;;4770071;30;20236;-87
2022/10/27 02:53:25;;;;;;;7.15;3.50;;;11.40;99.90;;;;;;4769916;30;20194;-86
2022/10/27 02:55:50;;;;;;;6.47;3.33;;;11.40;99.90;;;;;;4770155;30;20223;-86
2022/10/27 02:58:16;;;;;;;4.85;2.47;;;11.40;99.90;;;;;;4770106;30;20249;-87
2022/10/27 03:00:42;;;;;;;3.40;2.80;;;11.30;99.90;;;;;;4770424;30;20218;-86
2022/10/27 03:03:08;;;;;;;7.60;2.97;;;11.30;99.90;;;;;;4770013;30;20188;-87
2022/10/27 03:05:34;;;;;;;12.80;2.67;;;11.40;99.90;;;;;;4770017;30;20203;-86
2022/10/27 03:08:00;;;;;;;3.60;2.50;;;11.40;99.90;;;;;;4770966;30;20457;-87
2022/10/27 03:10:26;;;;;;;9.27;2.88;;;11.40;99.90;;;;;;4769963;30;20188;-86
2022/10/27 03:12:51;;;;;;;4.05;2.35;;;11.40;99.90;;;;;;4769793;30;20198;-87
2022/10/27 03:15:17;;;;;;;4.05;2.33;;;11.40;99.90;;;;;;4769660;30;20306;-86
2022/10/27 03:17:44;;;;;;;6.18;2.30;;;11.40;99.90;;;;;;4771162;30;20184;-86
2022/10/27 03:20:10;;;;;;;7.70;2.80;;;11.30;99.90;;;;;;4770166;30;20188;-87
2022/10/27 03:22:40;;;;;;;4.20;2.47;;;11.30;99.90;;;;;;4769708;30;20226;-88
2022/10/27 03:25:06;;;;;;;5.75;2.70;;;11.40;99.90;;;;;;4769691;30;20279;-87
2022/10/27 03:27:32;;;;;;;9.40;2.88;;;11.40;99.90;;;;;;4769786;30;20176;-87
2022/10/27 03:29:57;;;;;;;4.03;2.22;;;11.40;99.90;;;;;;4769810;30;20682;-86
2022/10/27 03:32:23;;;;;;;8.38;2.72;;;11.40;99.90;;;;;;4770051;30;20192;-86
2022/10/27 03:34:49;;;;;;;4.70;2.63;;;11.40;99.90;;;;;;4769623;30;20261;-87
2022/10/27 03:37:15;;;;;;;5.25;2.72;;;11.30;99.90;;;;;;4769592;30;20629;-87
2022/10/27 03:39:40;;;;;;;6.85;2.67;;;11.30;99.90;;;;;;4769802;30;20524;-87
2022/10/27 03:42:06;;;;;;;8.23;2.80;;;11.30;99.90;;;;;;4771669;30;20192;-87
2022/10/27 03:44:32;;;;;;;8.10;2.92;;;11.30;99.90;;;;;;4773158;30;20188;-88
2022/10/27 03:46:57;;;;;;;8.25;3.25;;;11.30;99.90;;;;;;4773068;30;20644;-88
2022/10/27 03:49:23;;;;;;;4.15;2.75;;;11.30;99.90;;;;;;4774194;30;20214;-87
2022/10/27 03:51:49;;;;;;;6.97;2.80;;;11.40;99.90;;;;;;4772557;30;20251;-86
2022/10/27 03:54:14;;;;;;;6.32;2.70;;;11.40;99.90;;;;;;4774006;30;20194;-87
2022/10/27 03:56:40;;;;;;;7.20;2.70;;;11.30;99.90;;;;;;4772562;30;20220;-86
2022/10/27 03:59:07;;;;;;;4.15;2.45;;;11.30;99.90;;;;;;4772424;30;20192;-86
2022/10/27 04:01:34;;;;;;;6.82;2.58;;;11.30;99.90;;;;;;4773722;30;20195;-86
2022/10/27 04:04:00;;;;;;;5.93;2.80;;;11.30;99.90;;;;;;4772712;30;20555;-87
2022/10/27 04:06:26;;;;;;;5.60;3.00;;;11.30;99.90;;;;;;4773470;30;20188;-87
2022/10/27 04:08:52;;;;;;;7.95;2.53;;;11.30;99.90;;;;;;4772529;30;20511;-88
2022/10/27 04:11:18;;;;;;;7.47;2.75;;;11.40;99.90;;;;;;4772244;30;20196;-86
2022/10/27 04:13:45;;;;;;;9.48;3.50;;;11.40;99.90;;;;;;4772132;30;20280;-87
2022/10/27 04:16:11;;;;;;;6.32;3.17;;;11.40;99.90;;;;;;4773379;30;20254;-86
2022/10/27 04:18:37;;;;;;;8.05;3.08;;;11.40;99.90;;;;;;4773569;30;20249;-87
2022/10/27 04:21:04;;;;;;;7.20;3.13;;;11.40;99.90;;;;;;4772288;30;20207;-87
2022/10/27 04:23:30;;;;;;;4.55;2.85;;;11.40;99.90;;;;;;4787158;30;20642;-87
2022/10/27 04:25:56;;;;;;;5.53;3.40;;;11.40;99.90;;;;;;4787237;30;20188;-86
2022/10/27 04:28:22;;;;;;;4.97;2.25;;;11.40;99.90;;;;;;4787214;30;20188;-86
2022/10/27 04:30:48;;;;;;;4.63;2.58;;;11.40;99.90;;;;;;4787203;30;20241;-86
2022/10/27 04:33:13;;;;;;;8.10;3.08;;;11.40;99.90;;;;;;4787171;30;20531;-87
2022/10/27 04:35:39;;;;;;;9.98;2.70;;;11.40;99.90;;;;;;4787062;30;20292;-88
2022/10/27 04:38:05;;;;;;;6.22;3.17;;;11.30;99.90;;;;;;4786920;30;20275;-87
2022/10/27 04:40:31;;;;;;;7.60;2.50;;;11.30;99.90;;;;;;4773050;30;20524;-86
2022/10/27 04:42:56;;;;;;;6.35;2.72;;;11.30;99.90;;;;;;4786876;30;20184;-87
2022/10/27 04:45:22;;;;;;;5.88;2.95;;;11.30;99.90;;;;;;4787015;30;20192;-87
2022/10/27 04:47:48;;;;;;;11.50;3.83;;;11.30;99.90;;;;;;4786686;30;20184;-86
2022/10/27 04:50:15;;;;;;;8.27;4.32;;;11.30;99.90;;;;;;4786982;30;20200;-88
2022/10/27 04:52:41;;;;;;;5.93;3.78;;;11.30;99.90;;;;;;4785703;29;20281;-87
2022/10/27 04:55:08;;;;;;;11.52;3.10;;;11.30;99.90;;;;;;4786326;30;20216;-87
2022/10/27 04:57:33;;;;;;;8.05;3.92;;;11.30;99.90;;;;;;4786791;30;20195;-87
2022/10/27 04:59:59;;;;;;;6.75;3.08;;;11.30;99.90;;;;;;4787013;30;20196;-88
2022/10/27 05:02:25;;;;;;;5.70;3.30;;;11.30;99.90;;;;;;4786818;30;20666;-88
2022/10/27 05:04:51;;;;;;;5.47;3.08;;;11.30;99.90;;;;;;4787054;30;20192;-87
2022/10/27 05:07:16;;;;;;;8.13;3.47;;;11.30;99.90;;;;;;4786326;30;20282;-87
2022/10/27 05:09:42;;;;;;;8.27;3.75;;;11.30;99.90;;;;;;4786295;30;20223;-86
2022/10/27 05:12:08;;;;;;;6.15;3.05;;;11.30;99.90;;;;;;4786434;30;20184;-87
2022/10/27 05:14:33;;;;;;;4.55;2.97;;;11.30;99.90;;;;;;4786178;30;20184;-87
2022/10/27 05:16:59;;;;;;;10.05;3.35;;;11.30;99.90;;;;;;4772326;30;20203;-87
2022/10/27 05:19:25;;;;;;;5.18;3.05;;;11.30;99.90;;;;;;4786338;30;20639;-88
2022/10/27 05:21:50;;;;;;;7.80;3.25;;;11.30;99.90;;;;;;4779713;30;20215;-86
2022/10/27 05:24:16;;;;;;;7.55;3.15;;;11.30;99.90;;;;;;4771182;30;20176;-87
2022/10/27 05:26:41;;;;;;;7.38;3.10;;;11.30;99.90;;;;;;4771011;30;20192;-86
2022/10/27 05:29:07;;;;;;;3.95;2.45;;;11.30;99.90;;;;;;4771411;30;20180;-88
2022/10/27 05:31:33;;;;;;;5.25;2.75;;;11.30;99.90;;;;;;4771321;30;20184;-87
2022/10/27 05:33:58;;;;;;;5.45;2.80;;;11.30;99.90;;;;;;4771221;30;20191;-87
2022/10/27 05:36:24;;;;;;;5.78;2.95;;;11.30;99.90;;;;;;4771203;30;20341;-88
2022/10/27 05:38:50;;;;;;;4.70;2.80;;;11.30;99.90;;;;;;4771136;30;20639;-87
2022/10/27 05:41:17;;;;;;;4.35;2.33;;;11.30;99.90;;;;;;4772433;30;20187;-88
2022/10/27 05:43:43;;;;;;;4.70;2.70;;;11.30;99.90;;;;;;4771163;30;20199;-88
2022/10/27 05:46:09;;;;;;;7.30;2.60;;;11.30;99.90;;;;;;4771014;30;20183;-88
2022/10/27 05:48:34;;;;;;;4.50;2.70;;;11.20;99.90;;;;;;4771103;30;20624;-89
2022/10/27 05:51:00;;;;;;;9.02;2.80;;;11.20;99.90;;;;;;4770739;30;20323;-89
2022/10/27 05:53:26;;;;;;;6.55;2.97;;;11.20;99.90;;;;;;4771766;30;20210;-87
2022/10/27 05:55:53;;;;;;;7.03;2.55;;;11.10;99.90;;;;;;4770824;30;20227;-88
2022/10/27 05:58:18;;;;;;;5.93;2.88;;;11.10;99.90;;;;;;4771237;30;20550;-89
2022/10/27 06:00:44;;;;;;;5.82;2.92;;;11.20;99.90;;;;;;4771988;30;20343;-88
2022/10/27 06:03:20;;;;;;;4.53;2.88;;;11.20;99.90;;;;;;4770734;30;20196;-89
2022/10/27 06:05:46;;;;;;;5.95;2.95;;;11.20;99.90;;;;;;4770411;30;20192;-88
2022/10/27 06:08:12;;;;;;;5.53;2.78;;;11.20;99.90;;;;;;4770039;30;20202;-88
2022/10/27 06:10:38;;;;;;;4.65;3.00;;;11.20;99.90;;;;;;4770947;30;20632;-88
2022/10/27 06:13:05;;;;;;;6.25;3.00;;;11.20;99.90;;;;;;4770794;30;20191;-88
2022/10/27 06:15:32;;;;;;;11.38;2.72;;;11.20;99.90;;;;;;4770768;30;20303;-88
2022/10/27 06:17:58;;;;;;;4.70;2.30;;;11.20;99.90;;;;;;4771803;30;20199;-88
2022/10/27 06:20:24;;;;;;;4.05;2.60;;;11.20;99.90;;;;;;4770603;30;20559;-87
2022/10/27 06:22:50;;;;;;;6.78;2.97;;;11.20;99.90;;;;;;4770269;30;20264;-87
2022/10/27 06:25:16;;;;;;;8.20;3.20;;;11.20;99.90;;;;;;4770519;30;20191;-88
2022/10/27 06:27:41;;;;;;;2.90;2.20;;;11.10;99.90;;;;;;4770328;30;20180;-87
2022/10/27 06:30:08;;;;;;;8.23;2.63;;;11.10;99.90;;;;;;4770693;30;20222;-88
2022/10/27 06:32:38;;;;;;;4.35;2.40;;;11.10;99.90;;;;;;4771671;30;20309;-88
2022/10/27 06:35:04;;;;;;;5.07;2.47;;;11.10;99.90;;;;;;4770188;30;20203;-88
2022/10/27 06:37:30;;;;;;;7.03;2.50;;;11.10;99.90;;;;;;4769966;30;20688;-87
2022/10/27 06:39:56;;;;;;;7.85;2.70;;;11.20;99.90;;;;;;4752630;30;20318;-87
2022/10/27 06:42:22;;;;;;;6.50;2.25;;;11.20;99.90;;;;;;4752682;30;20189;-88
2022/10/27 06:44:48;;;;;;;3.55;2.20;;;11.30;99.90;;;;;;4752759;30;20219;-87
2022/10/27 06:47:14;;;;;;;4.70;2.33;;;11.30;99.90;;;;;;4752570;30;20254;-88
2022/10/27 06:49:39;;;;;;;7.00;2.40;;;11.30;99.90;;;;;;4752595;30;20185;-87
2022/10/27 06:52:05;;;;;;;6.35;2.47;;;11.40;99.90;;;;;;4752388;30;20248;-88
2022/10/27 06:54:31;;;;;;;5.03;2.40;;;11.50;99.90;;;;;;4752859;30;20207;-87
2022/10/27 06:56:57;;;;;;;7.88;2.72;;;11.60;99.90;;;;;;4753722;30;20661;-88
2022/10/27 06:59:23;;;;;;;4.80;2.20;;;11.70;99.90;;;;;;4752705;30;20234;-88
2022/10/27 07:01:48;;;;;;;7.05;2.42;;;11.70;99.90;;;;;;4753555;30;20657;-88
2022/10/27 07:04:14;;;;;;;4.88;2.20;;;11.80;99.90;;;;;;4752510;30;20200;-87
2022/10/27 07:06:41;;;;;;;3.88;2.40;;;11.80;99.90;;;;;;4752515;30;20633;-88
2022/10/27 07:09:06;;;;;;;6.70;2.25;;;11.80;99.90;;;;;;4752258;30;20185;-88
2022/10/27 07:11:32;;;;;;;9.35;2.35;;;11.80;99.90;;;;;;4752427;30;20181;-88
2022/10/27 07:13:58;;;;;;;5.22;2.35;;;11.80;99.90;;;;;;4752239;30;20629;-88
2022/10/27 07:16:23;;;;;;;8.20;2.45;;;11.80;99.90;;;;;;4752919;30;20676;-88
2022/10/27 07:18:49;;;;;;;3.70;2.50;;;11.80;99.90;;;;;;4755953;30;20616;-87
2022/10/27 07:21:15;;;;;;;7.03;2.20;;;11.80;99.90;;;;;;4755830;30;20641;-88
2022/10/27 07:23:41;;;;;;;11.40;2.70;;;11.90;99.90;;;;;;4755379;30;20283;-89
2022/10/27 07:26:07;;;;;;;8.43;2.53;;;11.90;99.90;;;;;;4755742;30;20275;-87
2022/10/27 07:28:33;;;;;;;4.25;2.22;;;12.00;99.90;;;;;;4756857;30;20254;-88
2022/10/27 07:30:59;;;;;;;7.45;2.58;;;12.00;99.90;;;;;;4755850;30;20685;-87
2022/10/27 07:33:24;;;;;;;5.00;2.42;;;12.10;99.90;;;;;;4755662;30;20200;-88
2022/10/27 07:35:51;;;;;;;8.55;3.17;;;12.10;99.90;;;;;;4755373;30;20224;-89
2022/10/27 07:38:18;;;;;;;8.80;2.35;;;12.20;99.90;;;;;;4762390;30;20628;-88
2022/10/27 07:40:43;;;;;;;6.40;2.60;;;12.20;99.90;;;;;;4773493;30;20724;-88
2022/10/27 07:43:10;;;;;;;4.07;2.80;;;12.30;99.90;;;;;;4773176;30;20282;-89
2022/10/27 07:45:37;;;;;;;6.10;2.42;;;12.40;99.90;;;;;;4773249;30;20274;-89
2022/10/27 07:48:04;;;;;;;5.75;2.20;;;12.50;99.90;;;;;;4773032;30;20240;-88
2022/10/27 07:50:32;;;;;;;11.13;3.00;;;12.60;99.90;;;;;;4773132;30;20188;-89
2022/10/27 07:52:59;;;;;;;6.93;2.58;;;12.70;99.90;;;;;;4775761;30;20545;-89
2022/10/27 07:55:28;;;;;;;9.05;2.38;;;12.90;99.90;;;;;;4792048;30;20219;-88
2022/10/27 07:58:14;;;;;;;5.57;2.38;;;13.00;99.90;;;;;;4775892;30;20274;-89
2022/10/27 08:00:42;;;;;;;4.18;2.45;;;13.20;99.90;;;;;;4775943;30;20194;-87
2022/10/27 08:03:15;;;;;;;7.55;2.30;;;13.40;99.90;;;;;;4775641;30;20183;-89
2022/10/27 08:05:40;;;;;;;5.60;2.50;;;13.50;99.90;;;;;;4775844;30;20278;-88
2022/10/27 08:08:07;;;;;;;6.65;2.42;;;13.60;99.90;;;;;;4775357;30;20326;-88
2022/10/27 08:10:38;;;;;;;6.15;2.15;;;13.70;99.90;;;;;;4775749;30;20242;-87
2022/10/27 08:13:05;;;;;;;6.32;2.20;;;13.90;99.90;;;;;;4775566;30;20751;-87
2022/10/27 08:15:31;;;;;;;4.68;2.15;;;14.00;99.90;;;;;;4775766;30;20211;-88
2022/10/27 08:18:00;;;;;;;6.45;2.30;;;14.10;99.90;;;;;;4775696;30;20183;-89
2022/10/27 08:20:30;;;;;;;6.60;2.00;;;14.20;99.90;;;;;;4775738;30;20579;-90
2022/10/27 08:23:01;;;;;;;6.78;1.88;;;14.30;99.90;;;;;;4775143;30;20268;-88
2022/10/27 08:25:28;;;;;;;4.35;2.03;;;14.40;99.90;;;;;;4775584;30;20176;-88
2022/10/27 08:27:54;;;;;;;5.10;2.03;;;14.40;99.90;;;;;;4775178;30;20533;-88
2022/10/27 08:30:20;;;;;;;9.57;2.38;;;14.50;99.90;;;;;;4775587;30;20318;-88
2022/10/27 08:32:47;;;;;;;7.28;2.50;;;14.50;99.90;;;;;;4775189;30;20188;-89
2022/10/27 08:35:13;;;;;;;6.97;2.28;;;14.60;99.90;;;;;;4775269;30;20218;-88
2022/10/27 08:37:39;;;;;;;5.80;2.65;;;14.70;99.90;;;;;;4775171;30;20191;-89
2022/10/27 08:40:06;;;;;;;7.72;2.10;;;14.80;99.90;;;;;;4775304;30;20187;-90
2022/10/27 08:42:35;;;;;;;4.95;1.98;;;14.80;99.90;;;;;;4775083;30;20214;-88
2022/10/27 08:45:10;;;;;;;11.85;2.03;;;15.00;99.90;;;;;;4789965;30;20225;-90
2022/10/27 08:47:36;;;;;;;6.57;1.85;;;15.00;99.90;;;;;;4774982;30;20186;-89
2022/10/27 08:50:24;;;;;;;7.72;2.58;;;15.00;99.90;;;;;;4775248;30;20192;-89
2022/10/27 08:52:53;;;;;;;7.10;2.17;;;15.10;99.90;;;;;;4774385;30;20245;-88
2022/10/27 08:55:35;;;;;;;6.57;1.80;;;15.20;99.90;;;;;;4775001;30;20215;-89
2022/10/27 08:58:26;;;;;;;5.35;2.10;;;15.30;99.90;;;;;;4775050;30;20194;-89
2022/10/27 09:00:55;;;;;;;7.60;2.20;;;15.20;99.90;;;;;;4789712;30;20258;-90
2022/10/27 09:03:59;;;;;;;4.60;1.88;;;15.30;99.90;;;;;;4774782;30;20191;-90
2022/10/27 09:06:34;;;;;;;6.35;2.22;;;15.30;99.90;;;;;;4790866;30;20191;-89
2022/10/27 09:09:03;;;;;;;5.70;2.10;;;15.30;99.90;;;;;;4790323;30;20194;-90
2022/10/27 09:11:55;;;;;;;4.10;2.00;;;15.30;99.90;;;;;;4789531;30;20642;-90
2022/10/27 09:14:50;;;;;;;6.63;1.80;;;15.40;99.90;;;;;;4774575;30;20187;-88
2022/10/27 09:17:23;;;;;;;7.25;2.00;;;15.50;99.90;;;;;;4774551;30;20233;-89
2022/10/27 09:19:54;;;;;;;5.07;2.20;;;15.60;99.90;;;;;;4774546;30;20206;-90
2022/10/27 09:22:21;;;;;;;4.53;2.22;;;15.70;99.90;;;;;;4774295;30;20292;-88
2022/10/27 09:25:06;;;;;;;4.85;2.13;;;15.80;99.90;;;;;;4774458;30;20187;-89
2022/10/27 09:27:34;;;;;;;3.15;1.80;;;15.80;99.90;;;;;;4774560;30;20187;-89
2022/10/27 09:30:04;;;;;;;2.63;1.52;;;15.90;99.90;;;;;;4774398;30;20213;-89
2022/10/27 09:32:34;;;;;;;6.75;2.00;;;16.00;99.90;;;;;;4774608;30;20183;-89
2022/10/27 09:35:08;;;;;;;9.85;2.30;;;16.10;99.90;;;;;;4774100;30;20310;-88
2022/10/27 09:37:40;;;;;;;3.88;1.80;;;16.20;99.90;;;;;;4773902;30;20635;-88
2022/10/27 09:40:32;;;;;;;6.07;1.80;;;16.20;99.90;;;;;;4773958;30;20646;-89
2022/10/27 09:42:59;;;;;;;7.30;2.20;;;16.20;99.90;;;;;;4790091;30;20203;-88
2022/10/27 09:45:27;;;;;;;7.10;1.75;;;16.20;99.90;;;;;;4773996;30;20213;-89
2022/10/27 09:48:12;;;;;;;3.30;1.80;;;16.20;99.90;;;;;;4790108;30;20218;-89
2022/10/27 09:50:55;;;;;;;5.07;1.88;;;16.30;99.90;;;;;;4773720;30;20187;-87
2022/10/27 09:53:40;;;;;;;5.22;2.00;;;16.30;99.90;;;;;;4773640;30;20195;-89
2022/10/27 09:56:09;;;;;;;10.48;1.80;;;16.40;99.90;;;;;;4773795;30;20280;-89
2022/10/27 09:59:03;;;;;;;3.22;1.60;;;16.50;99.90;;;;;;4773880;30;20225;-89
2022/10/27 10:01:56;;;;;;;3.70;2.00;;;16.60;99.90;;;;;;4771818;30;20222;-89
2022/10/27 10:04:26;;;;;;;6.75;1.80;;;16.70;99.90;;;;;;4773902;30;20188;-89
2022/10/27 10:06:58;;;;;;;4.22;2.00;;;16.90;99.90;;;;;;4773913;30;20187;-89
2022/10/27 10:09:29;;;;;;;6.35;2.38;;;17.00;99.90;;;;;;4773681;30;20191;-88
2022/10/27 10:12:25;;;;;;;8.20;2.78;;;17.10;99.90;;;;;;4788726;30;20184;-85
2022/10/27 10:15:11;;;;;;;6.38;2.38;;;17.30;99.90;;;;;;4762540;30;20199;-88
2022/10/27 10:17:58;;;;;;;6.75;2.58;;;17.40;99.90;;;;;;4766930;30;20226;-87
2022/10/27 10:20:41;;;;;;;5.38;2.50;;;17.40;99.90;;;;;;4789379;30;20180;-85
2022/10/27 10:23:21;;;;;;;8.25;2.72;;;17.40;99.90;;;;;;4788251;30;20205;-87
2022/10/27 10:25:48;;;;;;;5.57;2.30;;;17.50;99.90;;;;;;4788505;30;20179;-87
2022/10/27 10:28:20;;;;;;;6.10;2.25;;;17.60;99.90;;;;;;4783420;30;20192;-87
2022/10/27 10:30:51;;;;;;;6.55;2.40;;;17.60;99.90;;;;;;4777576;30;20199;-87
2022/10/27 10:33:18;;;;;;;5.30;2.25;;;17.60;99.90;;;;;;4788302;30;20215;-88
2022/10/27 10:35:46;;;;;;;4.88;2.20;;;17.70;99.90;;;;;;4773406;30;20226;-88
2022/10/27 10:38:24;;;;;;;5.25;2.03;;;17.70;99.90;;;;;;4776367;30;20215;-88
2022/10/27 10:41:21;;;;;;;4.38;1.92;;;17.80;99.90;;;;;;4773393;30;20188;-87
2022/10/27 10:44:06;;;;;;;7.55;1.80;;;17.90;99.90;;;;;;4773504;30;20184;-87
2022/10/27 10:46:33;;;;;;;3.55;1.25;;;18.00;99.90;;;;;;4789441;30;20179;-87
2022/10/27 10:48:59;;;;;;;4.85;1.20;;;18.10;99.90;;;;;;4773394;30;20215;-88
2022/10/27 10:51:34;;;;;;;4.57;1.23;;;18.30;99.90;;;;;;4773898;30;20238;-88
2022/10/27 10:54:05;;;;;;;3.20;1.30;;;18.40;99.90;;;;;;4776711;30;20666;-88
2022/10/27 10:56:34;;;;;;;6.20;1.27;;;18.50;99.90;;;;;;4776898;30;20305;-88
2022/10/27 10:59:11;;;;;;;5.28;1.00;;;18.70;99.90;;;;;;4776851;30;20236;-87
2022/10/27 11:01:50;;;;;;;3.00;1.00;;;18.80;99.90;;;;;;4776886;30;20269;-88
2022/10/27 11:04:25;;;;;;;2.58;0.90;;;18.80;99.90;;;;;;4776865;30;20214;-87
2022/10/27 11:07:04;;;;;;;4.18;1.30;;;18.90;99.90;;;;;;4776834;30;20229;-88
2022/10/27 11:09:36;;;;;;;6.95;1.17;;;18.90;99.90;;;;;;4776696;30;20209;-88
2022/10/27 11:12:04;;;;;;;3.30;1.00;;;18.90;99.90;;;;;;4776675;30;20176;-87
2022/10/27 11:14:30;;;;;;;4.10;1.05;;;18.90;99.90;;;;;;4776569;30;20217;-89
2022/10/27 11:17:00;;;;;;;2.80;0.88;;;19.00;99.90;;;;;;4776695;30;20222;-88
2022/10/27 11:19:30;;;;;;;6.38;0.90;;;19.10;99.90;;;;;;4776495;30;20186;-87
2022/10/27 11:21:58;;;;;;;3.28;1.00;;;19.10;99.90;;;;;;4776769;30;20225;-87
2022/10/27 11:24:38;;;;;;;4.72;0.98;;;19.30;99.90;;;;;;4791287;30;20699;-89
2022/10/27 11:27:18;;;;;;;3.72;0.80;;;19.30;99.90;;;;;;4776423;30;20302;-89
2022/10/27 11:30:04;;;;;;;6.00;0.93;;;19.50;99.90;;;;;;4776362;30;20201;-88
2022/10/27 11:32:46;;;;;;;4.47;1.08;;;19.60;99.90;;;;;;4776479;30;20184;-88
2022/10/27 11:35:51;;;;;;;4.32;1.00;;;19.70;99.90;;;;;;4776324;30;20673;-89
2022/10/27 11:38:55;;;;;;;1.38;0.60;;;19.80;99.90;;;;;;4776202;30;20199;-87
2022/10/27 11:41:44;;;;;;;3.75;0.93;;;20.00;99.90;;;;;;4766621;30;20194;-87
2022/10/27 11:44:35;;;;;;;2.10;0.85;;;20.00;99.90;;;;;;4791165;30;20195;-87
2022/10/27 11:47:11;;;;;;;4.10;0.77;;;19.90;99.90;;;;;;4791166;30;20575;-86
2022/10/27 11:49:42;;;;;;;5.97;1.02;;;19.90;99.90;;;;;;4790975;30;20206;-87
2022/10/27 11:52:25;;;;;;;5.53;0.85;;;19.90;99.90;;;;;;4790660;30;20239;-86
2022/10/27 11:54:52;;;;;;;3.75;1.00;;;19.90;99.90;;;;;;4790725;30;20247;-88
2022/10/27 11:57:31;;;;;;;1.17;0.70;;;20.00;99.90;;;;;;4790845;30;20191;-86
2022/10/27 12:00:09;;;;;;;4.03;0.98;;;20.00;99.90;;;;;;4790609;30;20616;-85
2022/10/27 12:03:12;;;;;;;4.88;1.00;;;20.00;99.90;;;;;;4790182;29;20186;-88
2022/10/27 12:06:02;;;;;;;2.45;0.80;;;20.00;99.90;;;;;;4791834;30;20183;-86
2022/10/27 12:08:59;;;;;;;3.00;0.77;;;20.00;99.90;;;;;;4790341;30;20226;-86
2022/10/27 12:11:55;;;;;;;1.30;0.77;;;20.00;99.90;;;;;;4791730;30;20242;-86
2022/10/27 12:14:47;;;;;;;4.70;0.88;;;20.00;99.90;;;;;;4790518;30;20182;-86
2022/10/27 12:17:27;;;;;;;3.13;0.90;;;19.90;99.90;;;;;;4791849;30;20258;-86
2022/10/27 12:19:55;;;;;;;6.00;1.20;;;20.00;99.90;;;;;;4790501;30;20179;-86
2022/10/27 12:22:31;;;;;;;4.25;0.80;;;20.00;99.90;;;;;;4775670;30;20572;-88
2022/10/27 12:25:20;;;;;;;2.95;1.02;;;20.00;99.90;;;;;;4775074;30;20240;-86
2022/10/27 12:27:53;;;;;;;1.98;1.10;;;20.00;99.90;;;;;;4791361;30;20211;-86
2022/10/27 12:30:22;;;;;;;2.00;0.85;;;20.00;99.90;;;;;;4790313;30;20196;-87
2022/10/27 12:32:50;;;;;;;4.78;1.10;;;20.10;99.90;;;;;;4775230;30;20187;-85
2022/10/27 12:35:48;;;;;;;3.30;1.00;;;20.00;99.90;;;;;;4790102;30;20215;-86
2022/10/27 12:38:42;;;;;;;3.35;1.20;;;20.00;99.90;;;;;;4789985;30;20214;-86
2022/10/27 12:41:35;;;;;;;2.28;1.20;;;19.90;99.90;;;;;;4790271;30;20698;-88
2022/10/27 12:44:06;;;;;;;3.42;1.20;;;19.90;99.90;;;;;;4775180;30;20337;-87
2022/10/27 12:46:55;;;;;;;2.40;1.23;;;19.90;99.90;;;;;;4791036;30;20175;-87
2022/10/27 12:50:18;;;;;;;4.43;2.08;;;19.90;99.90;;;;;;4750115;30;20228;-86
2022/10/27 12:52:55;;;;;;;3.03;1.17;;;20.00;99.90;;;;;;4721108;30;20245;-87
2022/10/27 12:55:23;;;;;;;4.90;1.30;;;20.00;99.90;;;;;;4735496;30;20208;-86
2022/10/27 12:58:27;;;;;;;4.88;1.50;;;20.20;99.90;;;;;;4758250;30;20211;-87
2022/10/27 13:01:05;;;;;;;1.98;1.10;;;20.30;99.90;;;;;;4789656;30;20183;-86
2022/10/27 13:03:36;;;;;;;6.13;1.25;;;20.40;99.90;;;;;;4789666;30;20279;-87
2022/10/27 13:06:14;;;;;;;4.95;1.20;;;20.40;99.90;;;;;;4790965;30;20179;-86
2022/10/27 13:09:30;;;;;;;4.70;1.30;;;20.40;99.90;;;;;;4789268;30;20587;-86